createdAt,value
2019-04-27T00:01:40.632Z,97.88
2019-04-27T00:04:23.591Z,97.17
2019-04-27T00:07:09.553Z,98.57
2019-04-27T00:09:43.210Z,98.64
2019-04-27T00:12:16.479Z,97.73
2019-04-27T00:14:48.362Z,97.90
2019-04-27T00:17:41.279Z,98.31
2019-04-27T00:19:56.889Z,98.67
2019-04-27T00:22:29.913Z,97.16
2019-04-27T00:24:58.405Z,97.12
2019-04-27T00:27:26.878Z,97.34
2019-04-27T00:29:55.383Z,97.30
2019-04-27T00:32:23.868Z,96.29
2019-04-27T00:34:53.240Z,95.75
2019-04-27T00:37:23.808Z,96.31
2019-04-27T00:40:00.025Z,97.24
2019-04-27T00:42:28.592Z,96.29
2019-04-27T00:44:57.072Z,96.81
2019-04-27T00:47:25.569Z,97.30
2019-04-27T00:49:54.945Z,98.11
2019-04-27T00:52:24.098Z,97.51
2019-04-27T00:54:53.899Z,98.54
2019-04-27T00:57:36.117Z,98.60
2019-04-27T01:00:25.953Z,100.00
2019-04-27T01:03:07.918Z,99.66
2019-04-27T01:05:36.569Z,99.12
2019-04-27T01:08:05.067Z,99.16
2019-04-27T01:10:33.623Z,99.96
2019-04-27T01:13:03.301Z,100.00
2019-04-27T01:15:34.009Z,100.00
2019-04-27T01:18:11.989Z,100.00
2019-04-27T01:20:33.019Z,100.00
2019-04-27T01:23:01.522Z,100.00
2019-04-27T01:25:31.619Z,100.00
2019-04-27T01:28:20.645Z,100.00
2019-04-27T01:30:53.687Z,100.00
2019-04-27T01:33:22.271Z,100.00
2019-04-27T01:35:50.741Z,100.00
2019-04-27T01:38:19.278Z,100.00
2019-04-27T01:40:47.713Z,100.00
2019-04-27T01:43:16.214Z,100.00
2019-04-27T01:45:44.863Z,100.00
2019-04-27T01:48:23.143Z,100.00
2019-04-27T01:50:43.553Z,100.00
2019-04-27T01:53:12.120Z,100.00
2019-04-27T01:55:40.854Z,100.00
2019-04-27T01:58:11.010Z,100.00
2019-04-27T02:00:44.171Z,100.00
2019-04-27T02:03:14.307Z,100.00
2019-04-27T02:05:56.397Z,100.00
2019-04-27T02:08:24.908Z,100.00
2019-04-27T02:10:53.548Z,100.00
2019-04-27T02:13:22.110Z,100.00
2019-04-27T02:15:50.653Z,100.00
2019-04-27T02:18:19.476Z,100.00
2019-04-27T02:20:49.206Z,100.00
2019-04-27T02:23:19.203Z,100.00
2019-04-27T02:25:49.536Z,100.00
2019-04-27T02:28:22.723Z,100.00
2019-04-27T02:30:53.001Z,100.00
2019-04-27T02:33:25.881Z,100.00
2019-04-27T02:35:54.451Z,100.00
2019-04-27T02:38:22.957Z,100.00
2019-04-27T02:40:53.582Z,100.00
2019-04-27T02:43:25.149Z,100.00
2019-04-27T02:45:53.631Z,100.00
2019-04-27T02:48:22.208Z,100.00
2019-04-27T02:50:52.320Z,100.00
2019-04-27T02:53:22.533Z,100.00
2019-04-27T02:55:51.009Z,100.00
2019-04-27T02:58:21.548Z,100.00
2019-04-27T03:00:50.250Z,100.00
2019-04-27T03:03:20.379Z,100.00
2019-04-27T03:05:50.344Z,100.00
2019-04-27T03:08:20.002Z,100.00
2019-04-27T03:10:50.380Z,100.00
2019-04-27T03:13:20.570Z,100.00
2019-04-27T03:15:53.165Z,100.00
2019-04-27T03:18:23.305Z,100.00
2019-04-27T03:20:53.429Z,100.00
2019-04-27T03:23:21.973Z,100.00
2019-04-27T03:26:00.254Z,100.00
2019-04-27T03:28:29.799Z,100.00
2019-04-27T03:31:02.446Z,100.00
2019-04-27T03:33:32.451Z,100.00
2019-04-27T03:36:02.629Z,100.00
2019-04-27T03:38:30.208Z,100.00
2019-04-27T03:41:00.476Z,100.00
2019-04-27T03:43:30.189Z,100.00
2019-04-27T03:46:00.548Z,100.00
2019-04-27T03:48:29.608Z,100.00
2019-04-27T03:51:09.961Z,100.00
2019-04-27T03:53:43.021Z,100.00
2019-04-27T03:56:13.167Z,100.00
2019-04-27T03:58:43.296Z,100.00
2019-04-27T04:01:11.809Z,100.00
2019-04-27T04:03:40.291Z,100.00
2019-04-27T04:06:10.782Z,100.00
2019-04-27T04:08:39.853Z,100.00
2019-04-27T04:11:22.565Z,100.00
2019-04-27T04:13:52.746Z,100.00
2019-04-27T04:16:22.869Z,100.00
2019-04-27T04:19:02.244Z,99.72
2019-04-27T04:21:30.796Z,99.83
2019-04-27T04:24:01.027Z,100.00
2019-04-27T04:26:32.806Z,100.00
2019-04-27T04:29:00.102Z,99.98
2019-04-27T04:31:32.614Z,100.00
2019-04-27T04:33:59.698Z,100.00
2019-04-27T04:36:30.068Z,99.47
2019-04-27T04:39:00.511Z,100.00
2019-04-27T04:41:43.670Z,100.00
2019-04-27T04:44:22.939Z,100.00
2019-04-27T04:47:00.360Z,100.00
2019-04-27T04:49:29.636Z,100.00
2019-04-27T04:51:59.489Z,100.00
2019-04-27T04:54:30.034Z,100.00
2019-04-27T04:56:59.470Z,100.00
2019-04-27T04:59:29.093Z,100.00
2019-04-27T05:02:00.239Z,100.00
2019-04-27T05:04:29.183Z,100.00
2019-04-27T05:06:59.246Z,100.00
2019-04-27T05:09:29.491Z,100.00
2019-04-27T05:11:58.795Z,100.00
2019-04-27T05:14:28.857Z,100.00
2019-04-27T05:16:59.184Z,100.00
2019-04-27T05:19:28.808Z,100.00
2019-04-27T05:21:59.147Z,100.00
2019-04-27T05:24:29.243Z,100.00
2019-04-27T05:26:59.020Z,100.00
2019-04-27T05:29:29.290Z,100.00
2019-04-27T05:31:59.220Z,100.00
2019-04-27T05:34:29.457Z,100.00
2019-04-27T05:37:00.731Z,100.00
2019-04-27T05:39:30.028Z,100.00
2019-04-27T05:41:59.749Z,100.00
2019-04-27T05:44:33.070Z,100.00
2019-04-27T05:47:05.376Z,100.00
2019-04-27T05:49:42.838Z,100.00
2019-04-27T05:52:14.462Z,100.00
2019-04-27T05:54:40.269Z,100.00
2019-04-27T05:57:09.512Z,100.00
2019-04-27T05:59:39.823Z,99.16
2019-04-27T06:02:09.333Z,99.46
2019-04-27T06:04:39.356Z,99.58
2019-04-27T06:07:09.194Z,99.88
2019-04-27T06:09:39.123Z,99.56
2019-04-27T06:12:08.974Z,99.77
2019-04-27T06:14:39.244Z,99.98
2019-04-27T06:17:09.454Z,100.00
2019-04-27T06:19:39.060Z,100.00
2019-04-27T06:22:09.519Z,100.00
2019-04-27T06:24:39.725Z,100.00
2019-04-27T06:27:09.390Z,99.89
2019-04-27T06:29:40.585Z,100.00
2019-04-27T06:32:08.996Z,100.00
2019-04-27T06:34:39.038Z,100.00
2019-04-27T06:37:09.451Z,100.00
2019-04-27T06:39:38.685Z,100.00
2019-04-27T06:42:16.718Z,100.00
2019-04-27T06:44:39.382Z,99.78
2019-04-27T06:47:09.111Z,99.36
2019-04-27T06:49:39.500Z,99.51
2019-04-27T06:52:08.670Z,99.33
2019-04-27T06:54:38.846Z,100.00
2019-04-27T06:57:09.120Z,100.00
2019-04-27T06:59:37.759Z,99.17
2019-04-27T07:02:06.237Z,98.97
2019-04-27T07:04:34.742Z,96.93
2019-04-27T07:07:03.218Z,97.02
2019-04-27T07:09:31.721Z,96.10
2019-04-27T07:12:00.208Z,95.54
2019-04-27T07:14:29.463Z,96.30
2019-04-27T07:16:59.131Z,96.52
2019-04-27T07:19:28.779Z,95.36
2019-04-27T07:21:57.213Z,94.64
2019-04-27T07:24:25.718Z,94.87
2019-04-27T07:26:54.196Z,95.75
2019-04-27T07:29:23.238Z,95.13
2019-04-27T07:31:51.931Z,93.46
2019-04-27T07:34:20.436Z,93.26
2019-04-27T07:36:49.253Z,93.76
2019-04-27T07:39:19.230Z,93.76
2019-04-27T07:41:48.763Z,92.08
2019-04-27T07:44:35.205Z,92.16
2019-04-27T07:47:16.845Z,92.33
2019-04-27T07:49:46.683Z,92.74
2019-04-27T07:52:15.159Z,90.40
2019-04-27T07:54:43.671Z,92.14
2019-04-27T07:57:12.146Z,91.25
2019-04-27T07:59:42.095Z,91.12
2019-04-27T08:02:11.185Z,90.44
2019-04-27T08:04:40.122Z,89.49
2019-04-27T08:07:09.233Z,88.71
2019-04-27T08:09:39.641Z,88.26
2019-04-27T08:12:08.219Z,88.59
2019-04-27T08:14:38.420Z,87.49
2019-04-27T08:17:06.978Z,88.51
2019-04-27T08:19:35.552Z,86.33
2019-04-27T08:22:04.102Z,88.99
2019-04-27T08:24:32.694Z,89.21
2019-04-27T08:27:12.045Z,86.43
2019-04-27T08:29:42.192Z,85.20
2019-04-27T08:32:12.315Z,83.77
2019-04-27T08:34:40.820Z,85.99
2019-04-27T08:37:09.376Z,86.03
2019-04-27T08:39:39.489Z,85.07
2019-04-27T08:42:09.542Z,85.67
2019-04-27T08:44:39.691Z,84.53
2019-04-27T08:47:09.579Z,85.41
2019-04-27T08:49:39.421Z,84.94
2019-04-27T08:52:09.372Z,83.06
2019-04-27T08:54:39.402Z,81.80
2019-04-27T08:57:09.693Z,80.69
2019-04-27T08:59:39.323Z,80.98
2019-04-27T09:02:08.811Z,81.34
2019-04-27T09:04:39.239Z,81.09
2019-04-27T09:07:25.615Z,82.64
2019-04-27T09:09:55.738Z,82.71
2019-04-27T09:12:31.787Z,79.15
2019-04-27T09:15:16.751Z,79.79
2019-04-27T09:17:48.757Z,78.64
2019-04-27T09:20:18.803Z,77.40
2019-04-27T09:22:48.863Z,74.88
2019-04-27T09:25:19.207Z,74.92
2019-04-27T09:27:49.258Z,72.60
2019-04-27T09:30:19.086Z,76.61
2019-04-27T09:32:47.723Z,74.86
2019-04-27T09:35:16.239Z,74.31
2019-04-27T09:37:45.871Z,74.27
2019-04-27T09:40:14.781Z,72.92
2019-04-27T09:42:43.285Z,70.73
2019-04-27T09:45:12.087Z,69.55
2019-04-27T09:47:40.598Z,70.21
2019-04-27T09:50:09.610Z,70.62
2019-04-27T09:52:38.108Z,70.58
2019-04-27T09:55:08.564Z,71.41
2019-04-27T09:57:37.107Z,70.68
2019-04-27T10:00:10.377Z,72.12
2019-04-27T10:02:38.949Z,71.96
2019-04-27T10:05:08.767Z,73.32
2019-04-27T10:07:37.344Z,72.50
2019-04-27T10:10:09.358Z,71.12
2019-04-27T10:12:37.876Z,70.35
2019-04-27T10:15:07.497Z,70.08
2019-04-27T10:17:36.081Z,67.54
2019-04-27T10:20:06.303Z,70.16
2019-04-27T10:22:41.212Z,70.80
2019-04-27T10:25:09.062Z,69.18
2019-04-27T10:27:37.569Z,70.30
2019-04-27T10:30:09.469Z,70.56
2019-04-27T10:32:37.969Z,71.05
2019-04-27T10:35:07.598Z,69.54
2019-04-27T10:37:36.370Z,68.12
2019-04-27T10:40:06.160Z,67.94
2019-04-27T10:42:35.842Z,68.39
2019-04-27T10:45:07.459Z,67.46
2019-04-27T10:47:36.128Z,67.57
2019-04-27T10:50:06.965Z,66.08
2019-04-27T10:52:35.468Z,65.03
2019-04-27T10:55:05.964Z,63.43
2019-04-27T10:57:34.572Z,65.35
2019-04-27T11:00:03.689Z,63.83
2019-04-27T11:02:32.204Z,63.00
2019-04-27T11:05:02.329Z,63.77
2019-04-27T11:07:32.480Z,62.02
2019-04-27T11:10:01.024Z,63.79
2019-04-27T11:12:29.545Z,60.50
2019-04-27T11:14:58.095Z,57.61
2019-04-27T11:17:26.796Z,56.37
2019-04-27T11:19:55.262Z,60.19
2019-04-27T11:22:23.767Z,57.96
2019-04-27T11:24:52.325Z,57.80
2019-04-27T11:27:20.835Z,59.50
2019-04-27T11:29:49.317Z,57.43
2019-04-27T11:32:17.871Z,55.69
2019-04-27T11:34:59.978Z,56.22
2019-04-27T11:37:30.130Z,56.12
2019-04-27T11:39:58.615Z,59.10
2019-04-27T11:42:27.105Z,59.05
2019-04-27T11:44:58.220Z,58.39
2019-04-27T11:47:27.422Z,55.51
2019-04-27T11:49:57.841Z,50.77
2019-04-27T11:52:26.226Z,48.34
2019-04-27T11:54:55.717Z,47.95
2019-04-27T11:57:24.294Z,49.71
2019-04-27T11:59:52.802Z,49.53
2019-04-27T12:02:21.291Z,51.53
2019-04-27T12:04:49.816Z,51.49
2019-04-27T12:07:18.290Z,55.97
2019-04-27T12:09:48.134Z,55.48
2019-04-27T12:12:21.677Z,57.56
2019-04-27T12:14:47.556Z,55.92
2019-04-27T12:17:16.529Z,56.83
2019-04-27T12:19:46.496Z,58.04
2019-04-27T12:22:16.386Z,55.86
2019-04-27T12:24:45.765Z,54.90
2019-04-27T12:27:30.978Z,52.17
2019-04-27T12:30:13.259Z,53.30
2019-04-27T12:32:41.740Z,52.72
2019-04-27T12:35:11.858Z,53.76
2019-04-27T12:37:40.347Z,54.06
2019-04-27T12:40:09.724Z,55.26
2019-04-27T12:42:38.274Z,56.76
2019-04-27T12:45:08.010Z,58.67
2019-04-27T12:47:36.613Z,60.57
2019-04-27T12:50:08.121Z,59.71
2019-04-27T12:52:36.612Z,61.65
2019-04-27T12:55:25.727Z,61.19
2019-04-27T12:57:58.737Z,61.25
2019-04-27T13:00:28.915Z,62.64
2019-04-27T13:02:57.747Z,63.51
2019-04-27T13:05:26.425Z,62.50
2019-04-27T13:07:54.903Z,61.95
2019-04-27T13:10:23.416Z,63.50
2019-04-27T13:12:51.958Z,61.46
2019-04-27T13:15:20.703Z,60.53
2019-04-27T13:17:49.359Z,56.33
2019-04-27T13:20:18.199Z,57.98
2019-04-27T13:22:47.548Z,57.79
2019-04-27T13:25:16.120Z,53.50
2019-04-27T13:27:44.604Z,49.81
2019-04-27T13:30:13.570Z,48.30
2019-04-27T13:32:42.115Z,49.98
2019-04-27T13:35:10.848Z,47.74
2019-04-27T13:37:41.188Z,41.54
2019-04-27T13:40:11.528Z,38.99
2019-04-27T13:42:44.636Z,35.75
2019-04-27T13:45:18.039Z,36.03
2019-04-27T13:47:57.188Z,36.27
2019-04-27T13:50:33.339Z,35.43
2019-04-27T13:53:01.808Z,35.44
2019-04-27T13:55:30.309Z,36.83
2019-04-27T13:57:58.777Z,37.64
2019-04-27T14:00:27.267Z,42.28
2019-04-27T14:02:55.744Z,42.98
2019-04-27T14:05:24.225Z,46.62
2019-04-27T14:07:52.757Z,47.87
2019-04-27T14:10:21.244Z,48.80
2019-04-27T14:12:49.745Z,49.61
2019-04-27T14:15:18.680Z,51.47
2019-04-27T14:17:47.222Z,53.32
2019-04-27T14:20:15.851Z,56.56
2019-04-27T14:22:44.364Z,57.83
2019-04-27T14:25:12.882Z,52.64
2019-04-27T14:27:41.773Z,52.18
2019-04-27T14:30:12.419Z,52.49
2019-04-27T14:32:42.366Z,53.07
2019-04-27T14:35:11.330Z,52.40
2019-04-27T14:37:40.279Z,51.58
2019-04-27T14:40:09.842Z,49.80
2019-04-27T14:42:38.349Z,51.29
2019-04-27T14:45:09.443Z,52.75
2019-04-27T14:47:39.878Z,52.95
2019-04-27T14:50:09.025Z,54.51
2019-04-27T14:52:40.543Z,53.12
2019-04-27T14:55:08.611Z,54.79
2019-04-27T14:57:39.342Z,58.21
2019-04-27T15:00:10.207Z,57.23
2019-04-27T15:02:39.297Z,57.23
2019-04-27T15:05:08.066Z,56.91
2019-04-27T15:07:36.826Z,55.18
2019-04-27T15:10:06.301Z,56.28
2019-04-27T15:12:34.803Z,50.75
2019-04-27T15:15:05.304Z,48.40
2019-04-27T15:17:33.803Z,47.90
2019-04-27T15:20:06.910Z,46.84
2019-04-27T15:22:35.787Z,49.52
2019-04-27T15:25:12.438Z,50.55
2019-04-27T15:27:40.470Z,47.53
2019-04-27T15:30:11.518Z,49.12
2019-04-27T15:32:53.435Z,48.98
2019-04-27T15:35:39.738Z,50.94
2019-04-27T15:38:11.279Z,50.55
2019-04-27T15:40:55.167Z,53.14
2019-04-27T15:43:27.304Z,50.61
2019-04-27T15:45:57.754Z,49.92
2019-04-27T15:48:30.485Z,51.08
2019-04-27T15:51:00.950Z,52.27
2019-04-27T15:53:26.248Z,54.06
2019-04-27T15:56:00.118Z,53.40
2019-04-27T15:58:26.119Z,51.20
2019-04-27T16:00:56.395Z,48.74
2019-04-27T16:03:27.254Z,46.96
2019-04-27T16:05:55.298Z,48.32
2019-04-27T16:08:23.806Z,45.23
2019-04-27T16:10:52.274Z,45.75
2019-04-27T16:13:20.772Z,48.40
2019-04-27T16:15:54.172Z,51.50
2019-04-27T16:18:19.529Z,51.40
2019-04-27T16:20:48.515Z,52.80
2019-04-27T16:23:18.157Z,48.75
2019-04-27T16:25:50.771Z,45.94
2019-04-27T16:28:18.384Z,43.48
2019-04-27T16:30:50.635Z,44.25
2019-04-27T16:33:20.186Z,43.45
2019-04-27T16:35:48.779Z,46.52
2019-04-27T16:38:19.174Z,50.79
2019-04-27T16:40:47.645Z,55.00
2019-04-27T16:43:16.139Z,55.53
2019-04-27T16:45:44.612Z,55.97
2019-04-27T16:48:13.111Z,56.02
2019-04-27T16:50:41.653Z,59.73
2019-04-27T16:53:12.456Z,60.22
2019-04-27T16:55:40.420Z,59.77
2019-04-27T16:58:15.811Z,60.37
2019-04-27T17:00:40.950Z,60.61
2019-04-27T17:03:09.986Z,60.51
2019-04-27T17:05:38.477Z,61.86
2019-04-27T17:08:13.971Z,62.72
2019-04-27T17:10:38.960Z,64.74
2019-04-27T17:13:12.967Z,66.90
2019-04-27T17:15:55.787Z,67.99
2019-04-27T17:18:34.904Z,69.21
2019-04-27T17:21:16.177Z,69.79
2019-04-27T17:23:33.604Z,70.61
2019-04-27T17:26:09.492Z,69.65
2019-04-27T17:28:37.542Z,69.38
2019-04-27T17:31:04.334Z,69.64
2019-04-27T17:33:34.453Z,68.41
2019-04-27T17:36:03.136Z,68.43
2019-04-27T17:38:31.920Z,70.23
2019-04-27T17:41:00.400Z,69.91
2019-04-27T17:43:29.026Z,70.69
2019-04-27T17:45:58.242Z,72.92
2019-04-27T17:48:28.768Z,73.58
2019-04-27T17:51:02.552Z,74.67
2019-04-27T17:53:29.872Z,74.78
2019-04-27T17:56:02.950Z,76.19
2019-04-27T17:58:28.707Z,76.69
2019-04-27T18:00:57.967Z,77.09
2019-04-27T18:03:28.527Z,78.10
2019-04-27T18:05:58.202Z,78.86
2019-04-27T18:08:26.913Z,79.60
2019-04-27T18:11:00.645Z,80.11
2019-04-27T18:13:26.526Z,80.49
2019-04-27T18:15:55.107Z,81.17
2019-04-27T18:18:27.047Z,82.07
2019-04-27T18:20:55.447Z,83.22
2019-04-27T18:23:37.828Z,83.78
2019-04-27T18:26:17.439Z,83.91
2019-04-27T18:28:52.290Z,83.46
2019-04-27T18:31:18.921Z,83.11
2019-04-27T18:33:47.399Z,83.18
2019-04-27T18:36:15.938Z,83.91
2019-04-27T18:38:44.430Z,84.61
2019-04-27T18:41:13.002Z,83.85
2019-04-27T18:43:46.494Z,83.68
2019-04-27T18:46:14.847Z,83.83
2019-04-27T18:48:50.270Z,84.03
2019-04-27T18:51:20.768Z,83.39
2019-04-27T18:53:49.998Z,83.45
2019-04-27T18:56:19.108Z,84.57
2019-04-27T18:58:47.658Z,85.35
2019-04-27T19:01:16.195Z,85.28
2019-04-27T19:03:44.700Z,86.65
2019-04-27T19:06:13.253Z,86.60
2019-04-27T19:08:42.129Z,85.90
2019-04-27T19:11:10.609Z,84.52
2019-04-27T19:13:40.113Z,84.11
2019-04-27T19:16:08.779Z,84.87
2019-04-27T19:18:37.828Z,85.76
2019-04-27T19:21:08.744Z,85.47
2019-04-27T19:23:38.244Z,84.84
2019-04-27T19:26:14.909Z,85.52
2019-04-27T19:29:01.422Z,86.06
2019-04-27T19:31:33.971Z,86.62
2019-04-27T19:34:02.478Z,87.86
2019-04-27T19:36:30.997Z,89.07
2019-04-27T19:38:59.574Z,89.38
2019-04-27T19:41:28.877Z,88.88
2019-04-27T19:43:57.551Z,87.79
2019-04-27T19:46:26.034Z,88.02
2019-04-27T19:48:54.538Z,89.16
2019-04-27T19:51:23.014Z,89.82
2019-04-27T19:53:51.521Z,89.62
2019-04-27T19:56:21.416Z,88.72
2019-04-27T19:58:54.174Z,88.21
2019-04-27T20:01:30.323Z,88.10
2019-04-27T20:04:16.465Z,88.07
2019-04-27T20:06:44.994Z,87.97
2019-04-27T20:09:19.082Z,87.84
2019-04-27T20:11:47.785Z,88.04
2019-04-27T20:14:16.293Z,87.67
2019-04-27T20:16:44.774Z,88.28
2019-04-27T20:19:13.284Z,88.89
2019-04-27T20:21:41.779Z,89.30
2019-04-27T20:24:11.801Z,87.21
2019-04-27T20:26:40.516Z,86.50
2019-04-27T20:29:09.021Z,86.69
2019-04-27T20:31:37.500Z,84.93
2019-04-27T20:34:06.081Z,85.02
2019-04-27T20:36:34.568Z,85.56
2019-04-27T20:39:05.744Z,85.62
2019-04-27T20:41:33.275Z,86.58
2019-04-27T20:44:02.351Z,87.48
2019-04-27T20:46:31.295Z,88.46
2019-04-27T20:49:01.454Z,88.51
2019-04-27T20:51:51.056Z,88.72
2019-04-27T20:54:21.699Z,87.77
2019-04-27T20:56:51.616Z,86.77
2019-04-27T20:59:22.052Z,88.20
2019-04-27T21:01:50.729Z,88.48
2019-04-27T21:04:23.561Z,87.61
2019-04-27T21:06:53.684Z,87.26
2019-04-27T21:09:22.184Z,88.16
2019-04-27T21:11:50.662Z,88.26
2019-04-27T21:14:21.591Z,88.78
2019-04-27T21:16:51.709Z,88.62
2019-04-27T21:19:21.014Z,88.27
2019-04-27T21:21:51.033Z,87.95
2019-04-27T21:24:28.764Z,88.35
2019-04-27T21:26:57.160Z,89.38
2019-04-27T21:29:25.659Z,90.07
2019-04-27T21:31:54.135Z,90.65
2019-04-27T21:34:23.160Z,90.82
2019-04-27T21:36:51.634Z,91.11
2019-04-27T21:39:21.710Z,92.11
2019-04-27T21:41:51.749Z,92.31
2019-04-27T21:44:21.831Z,91.81
2019-04-27T21:46:51.929Z,91.81
2019-04-27T21:49:22.275Z,92.38
2019-04-27T21:52:04.586Z,92.10
2019-04-27T21:54:34.733Z,91.45
2019-04-27T21:57:03.281Z,91.54
2019-04-27T21:59:31.781Z,91.43
2019-04-27T22:02:02.362Z,90.85
2019-04-27T22:04:31.507Z,90.91
2019-04-27T22:07:01.396Z,91.01
2019-04-27T22:09:30.001Z,91.41
2019-04-27T22:11:58.545Z,92.45
2019-04-27T22:14:27.083Z,92.83
2019-04-27T22:16:55.557Z,94.03
2019-04-27T22:19:24.526Z,93.96
2019-04-27T22:21:53.006Z,93.75
2019-04-27T22:24:23.119Z,94.16
2019-04-27T22:26:51.894Z,93.31
2019-04-27T22:29:22.153Z,92.15
2019-04-27T22:31:51.642Z,92.94
2019-04-27T22:34:21.053Z,93.37
2019-04-27T22:36:49.682Z,93.17
2019-04-27T22:39:20.846Z,92.57
2019-04-27T22:41:56.944Z,93.66
2019-04-27T22:44:32.787Z,94.23
2019-04-27T22:47:01.287Z,94.70
2019-04-27T22:49:31.259Z,94.02
2019-04-27T22:52:01.540Z,94.22
2019-04-27T22:54:31.820Z,95.01
2019-04-27T22:57:02.134Z,95.75
2019-04-27T22:59:32.250Z,96.23
2019-04-27T23:02:11.563Z,96.43
2019-04-27T23:04:44.302Z,94.62
2019-04-27T23:07:12.793Z,93.34
2019-04-27T23:09:42.837Z,93.77
2019-04-27T23:12:14.302Z,94.15
2019-04-27T23:14:42.783Z,94.07
2019-04-27T23:17:31.543Z,93.67
2019-04-27T23:20:01.407Z,94.20
2019-04-27T23:22:31.542Z,94.71
2019-04-27T23:25:01.037Z,94.76
2019-04-27T23:27:31.352Z,93.73
2019-04-27T23:30:01.430Z,93.29
2019-04-27T23:32:34.883Z,93.11
2019-04-27T23:35:03.435Z,92.50
2019-04-27T23:37:31.938Z,93.25
2019-04-27T23:40:00.535Z,93.86
2019-04-27T23:42:31.567Z,95.18
2019-04-27T23:45:00.177Z,96.04
2019-04-27T23:47:28.678Z,96.72
2019-04-27T23:49:57.151Z,96.61
2019-04-27T23:52:27.366Z,95.43
2019-04-27T23:54:55.834Z,94.83
2019-04-27T23:57:24.331Z,95.49
2019-04-27T23:59:52.807Z,94.35
